createdAt,value
2023-05-10T08:53:03.923Z,49.52
2023-05-10T08:54:09.131Z,49.5
2023-05-10T08:55:14.391Z,49.49
2023-05-10T08:56:19.775Z,49.49
2023-05-10T08:57:24.944Z,49.49
2023-05-10T08:58:30.135Z,49.48
2023-05-10T08:59:35.376Z,49.48
2023-05-10T09:00:40.720Z,49.46
2023-05-10T09:01:45.947Z,49.45
2023-05-10T09:02:51.296Z,49.45
2023-05-10T09:03:56.645Z,49.46
2023-05-10T09:05:02.228Z,49.45
2023-05-10T09:06:07.502Z,49.47
2023-05-10T09:07:12.668Z,49.47
2023-05-10T09:08:17.868Z,49.46
2023-05-10T09:09:23.022Z,49.45
2023-05-10T09:10:28.320Z,49.45
2023-05-10T09:11:33.510Z,49.45
2023-05-10T09:12:38.759Z,49.44
2023-05-10T09:13:43.996Z,49.45
2023-05-10T09:14:49.479Z,49.45
2023-05-10T09:15:54.800Z,49.44
2023-05-10T09:17:00.240Z,49.45
2023-05-10T09:18:05.555Z,49.44
2023-05-10T09:19:11.385Z,49.43
2023-05-10T09:20:16.736Z,49.43
2023-05-10T09:21:21.959Z,49.43
2023-05-10T09:22:27.176Z,49.43
2023-05-10T09:23:32.371Z,49.43
2023-05-10T09:24:37.551Z,49.43
2023-05-10T09:25:42.745Z,49.43
2023-05-10T09:26:47.928Z,49.43
2023-05-10T09:27:53.098Z,49.43
2023-05-10T09:28:58.364Z,49.42
2023-05-10T09:30:03.559Z,49.42
2023-05-10T09:31:08.948Z,49.41
2023-05-10T09:32:16.123Z,49.41
2023-05-10T09:33:24.114Z,49.42
2023-05-10T09:34:29.276Z,49.41
2023-05-10T09:35:34.479Z,49.41
2023-05-10T09:36:39.954Z,49.4
2023-05-10T09:37:45.143Z,49.4
2023-05-10T09:38:50.343Z,49.4
2023-05-10T09:39:55.528Z,49.4
2023-05-10T09:41:00.696Z,49.39
2023-05-10T09:42:05.921Z,49.38
2023-05-10T09:43:11.181Z,49.38
2023-05-10T09:44:16.369Z,49.37
2023-05-10T09:45:21.822Z,49.37
2023-05-10T09:46:27.204Z,49.38
2023-05-10T09:47:32.502Z,49.38
2023-05-10T09:48:37.698Z,49.38
2023-05-10T09:49:42.943Z,49.38
2023-05-10T09:50:48.131Z,49.38
2023-05-10T09:51:53.312Z,49.38
2023-05-10T09:52:58.491Z,49.38
2023-05-10T09:54:03.659Z,49.37
2023-05-10T09:55:08.836Z,49.37
2023-05-10T09:56:13.991Z,49.38
2023-05-10T09:57:19.180Z,49.37
2023-05-10T09:58:24.387Z,49.35
2023-05-10T09:59:29.700Z,49.37
2023-05-10T10:00:34.880Z,49.37
2023-05-10T10:01:40.244Z,49.36
2023-05-10T10:02:45.615Z,49.36
2023-05-10T10:03:50.819Z,49.36
2023-05-10T10:04:56.176Z,49.34
2023-05-10T10:06:01.379Z,49.36
2023-05-10T10:07:06.722Z,49.37
2023-05-10T10:08:11.903Z,49.37
2023-05-10T10:09:17.120Z,49.36
2023-05-10T10:10:22.290Z,49.35
2023-05-10T10:11:27.475Z,49.34
2023-05-10T10:12:32.629Z,49.35
2023-05-10T10:13:37.785Z,49.34
2023-05-10T10:14:42.972Z,49.33
2023-05-10T10:15:48.422Z,49.34
2023-05-10T10:17:10.502Z,49.32
2023-05-10T10:18:15.800Z,49.31
2023-05-10T10:19:20.968Z,49.31
2023-05-10T10:20:26.242Z,49.31
2023-05-10T10:21:31.869Z,49.32
2023-05-10T10:22:37.043Z,49.32
2023-05-10T10:23:42.215Z,49.3
2023-05-10T10:24:47.398Z,49.31
2023-05-10T10:25:52.626Z,49.3
2023-05-10T10:26:57.825Z,49.31
2023-05-10T10:28:02.990Z,49.29
2023-05-10T10:29:08.155Z,49.31
2023-05-10T10:30:13.326Z,49.29
2023-05-10T10:31:18.712Z,49.31
2023-05-10T10:32:24.069Z,49.32
2023-05-10T10:33:31.582Z,49.32
2023-05-10T10:34:36.812Z,49.29
2023-05-10T10:35:41.989Z,49.28
2023-05-10T10:36:47.297Z,49.28
2023-05-10T10:37:52.519Z,49.29
2023-05-10T10:38:57.943Z,49.3
2023-05-10T10:40:03.100Z,49.28
2023-05-10T10:41:08.373Z,49.27
2023-05-10T10:42:13.584Z,49.26
2023-05-10T10:43:18.800Z,49.24
2023-05-10T10:44:23.997Z,49.24
2023-05-10T10:45:29.169Z,49.25
2023-05-10T10:46:34.448Z,49.25
2023-05-10T10:47:39.736Z,49.26
2023-05-10T10:48:45.016Z,49.26
2023-05-10T10:49:50.226Z,49.28
2023-05-10T10:50:55.393Z,49.26
2023-05-10T10:52:00.571Z,49.25
2023-05-10T10:53:05.887Z,49.24
2023-05-10T10:54:11.192Z,49.23
2023-05-10T10:55:16.991Z,49.23
2023-05-10T10:56:22.276Z,49.23
2023-05-10T10:57:27.505Z,49.23
2023-05-10T10:58:32.711Z,49.23
2023-05-10T10:59:37.892Z,49.23
2023-05-10T11:00:43.245Z,49.22
2023-05-10T11:01:48.453Z,49.21
2023-05-10T11:02:54.114Z,49.21
2023-05-10T11:03:59.600Z,49.2
2023-05-10T11:05:04.816Z,49.2
2023-05-10T11:06:10.069Z,49.18
2023-05-10T11:07:15.227Z,49.19
2023-05-10T11:08:20.852Z,49.2
2023-05-10T11:09:26.062Z,49.18
2023-05-10T11:10:31.258Z,49.2
2023-05-10T11:11:36.416Z,49.17
2023-05-10T11:12:41.570Z,49.2
2023-05-10T11:13:50.194Z,49.17
2023-05-10T11:14:56.030Z,49.15
2023-05-10T11:16:01.193Z,49.16
2023-05-10T11:17:06.580Z,49.19
2023-05-10T11:18:11.950Z,49.16
2023-05-10T11:19:17.449Z,49.16
2023-05-10T11:20:22.954Z,49.15
2023-05-10T11:21:28.151Z,49.14
2023-05-10T11:22:33.332Z,49.13
2023-05-10T11:23:38.503Z,49.12
2023-05-10T11:24:43.696Z,49.12
2023-05-10T11:25:48.882Z,49.12
2023-05-10T11:26:54.164Z,49.11
2023-05-10T11:27:59.339Z,49.1
2023-05-10T11:29:04.755Z,49.1
2023-05-10T11:30:09.961Z,49.11
2023-05-10T11:31:15.236Z,49.1
2023-05-10T11:32:20.464Z,49.09
2023-05-10T11:33:25.905Z,49.09
2023-05-10T11:34:31.171Z,49.09
2023-05-10T11:35:36.407Z,49.09
2023-05-10T11:36:41.577Z,49.1
2023-05-10T11:37:46.816Z,49.09
2023-05-10T11:38:52.010Z,49.1
2023-05-10T11:39:57.158Z,49.09
2023-05-10T11:41:02.352Z,49.09
2023-05-10T11:42:07.494Z,49.08
2023-05-10T11:43:12.654Z,49.06
2023-05-10T11:44:17.851Z,49.07
2023-05-10T11:45:23.129Z,49.07
2023-05-10T11:46:28.615Z,49.07
2023-05-10T11:47:33.979Z,49.05
2023-05-10T11:48:39.164Z,49.04
2023-05-10T11:49:44.332Z,49.02
2023-05-10T11:50:49.512Z,49.01
2023-05-10T11:51:54.701Z,49.01
2023-05-10T11:53:00.047Z,49.02
2023-05-10T11:54:05.243Z,49.01
2023-05-10T11:55:10.416Z,49.01
2023-05-10T11:56:15.662Z,49
2023-05-10T11:57:20.846Z,49
2023-05-10T11:58:26.012Z,49
2023-05-10T11:59:31.287Z,48.98
2023-05-10T12:00:36.480Z,49.01
2023-05-10T12:01:41.665Z,49
2023-05-10T12:02:47.135Z,49
2023-05-10T12:03:52.941Z,48.99
2023-05-10T12:04:58.476Z,48.97
2023-05-10T12:06:03.768Z,48.98
2023-05-10T12:07:08.979Z,48.98
2023-05-10T12:08:14.144Z,48.96
2023-05-10T12:09:43.999Z,48.97
2023-05-10T12:10:49.371Z,48.98
2023-05-10T12:11:54.560Z,48.96
2023-05-10T12:12:59.738Z,48.95
2023-05-10T12:14:04.903Z,48.95
2023-05-10T12:15:10.093Z,48.94
2023-05-10T12:16:15.415Z,48.96
2023-05-10T12:17:20.664Z,48.94
2023-05-10T12:18:26.004Z,48.95
2023-05-10T12:19:31.178Z,48.97
2023-05-10T12:20:36.346Z,48.97
2023-05-10T12:21:41.611Z,48.96
2023-05-10T12:22:46.765Z,48.97
2023-05-10T12:23:51.930Z,48.96
2023-05-10T12:24:57.110Z,48.96
2023-05-10T12:26:02.415Z,48.96
2023-05-10T12:27:07.579Z,48.95
2023-05-10T12:28:12.796Z,48.96
2023-05-10T12:29:18.099Z,48.96
2023-05-10T12:30:23.300Z,48.97
2023-05-10T12:31:28.644Z,48.97
2023-05-10T12:32:33.978Z,48.98
2023-05-10T12:33:39.172Z,48.98
2023-05-10T12:34:44.381Z,48.99
2023-05-10T12:35:49.574Z,49.01
2023-05-10T12:36:54.759Z,49.02
2023-05-10T12:37:59.961Z,49.03
2023-05-10T12:39:05.139Z,49.1
2023-05-10T12:40:10.333Z,49.1
2023-05-10T12:41:15.733Z,49.07
2023-05-10T12:42:20.978Z,49.09
2023-05-10T12:43:26.133Z,49.11
2023-05-10T12:44:31.324Z,49.09
2023-05-10T12:45:36.635Z,49.08
2023-05-10T12:46:41.886Z,49.12
2023-05-10T12:47:47.274Z,49.12
2023-05-10T12:49:09.830Z,49.17
2023-05-10T12:50:15.461Z,49.2
2023-05-10T12:51:21.279Z,49.24
2023-05-10T12:52:26.456Z,49.26
2023-05-10T12:53:31.663Z,49.24
2023-05-10T12:54:36.843Z,49.24
2023-05-10T12:55:42.291Z,49.23
2023-05-10T12:56:47.482Z,49.22
2023-05-10T12:57:52.710Z,49.17
2023-05-10T12:58:57.876Z,49.13
2023-05-10T13:00:03.143Z,49.13
2023-05-10T13:01:08.664Z,49.08
2023-05-10T13:02:13.909Z,49.06
2023-05-10T13:03:19.177Z,49.06
2023-05-10T13:04:24.537Z,49.04
2023-05-10T13:05:29.807Z,49.03
2023-05-10T13:06:35.003Z,49
2023-05-10T13:07:40.212Z,49.02
2023-05-10T13:08:45.382Z,48.96
2023-05-10T13:09:50.565Z,48.96
2023-05-10T13:10:55.762Z,48.89
2023-05-10T13:12:00.977Z,48.83
2023-05-10T13:13:06.169Z,48.76
2023-05-10T13:14:11.345Z,48.73
2023-05-10T13:15:16.534Z,48.69
2023-05-10T13:16:21.860Z,48.67
2023-05-10T13:17:27.105Z,48.66
2023-05-10T13:18:32.450Z,48.65
2023-05-10T13:19:37.649Z,48.64
2023-05-10T13:20:42.934Z,48.61
2023-05-10T13:21:48.107Z,48.57
2023-05-10T13:22:54.905Z,48.56
2023-05-10T13:24:00.102Z,48.51
2023-05-10T13:25:05.281Z,48.57
2023-05-10T13:26:10.460Z,48.55
2023-05-10T13:27:15.638Z,48.53
2023-05-10T13:28:20.817Z,48.45
2023-05-10T13:29:26.093Z,48.43
2023-05-10T13:30:31.495Z,48.38
2023-05-10T13:31:36.945Z,48.36
2023-05-10T13:32:42.337Z,48.38
2023-05-10T13:33:47.673Z,48.35
2023-05-10T13:34:52.920Z,48.35
2023-05-10T13:35:58.611Z,48.36
2023-05-10T13:37:03.859Z,48.28
2023-05-10T13:38:09.174Z,48.29
2023-05-10T13:39:14.431Z,48.31
2023-05-10T13:40:20.364Z,48.35
2023-05-10T13:41:25.611Z,48.36
2023-05-10T13:42:31.208Z,48.33
2023-05-10T13:43:37.078Z,48.32
2023-05-10T13:44:42.321Z,48.32
2023-05-10T13:45:47.553Z,48.33
2023-05-10T13:46:52.982Z,48.36
2023-05-10T13:47:58.452Z,48.36
2023-05-10T13:49:03.767Z,48.37
2023-05-10T13:50:09.525Z,48.36
2023-05-10T13:51:14.762Z,48.35
2023-05-10T13:52:20.057Z,48.33
2023-05-10T13:53:25.244Z,48.3
2023-05-10T13:54:30.423Z,48.28
2023-05-10T13:57:08.604Z,48.24
2023-05-10T13:58:13.877Z,48.24
2023-05-10T13:59:19.288Z,48.24
2023-05-10T14:00:27.517Z,48.23
2023-05-10T14:01:33.326Z,48.23
2023-05-10T14:02:39.500Z,48.22
2023-05-10T14:03:45.254Z,48.22
2023-05-10T14:04:50.724Z,48.24
2023-05-10T14:05:58.666Z,48.25
2023-05-10T14:07:04.074Z,48.24
2023-05-10T14:08:09.322Z,48.23
2023-05-10T14:09:14.617Z,48.21
2023-05-10T14:10:19.982Z,48.2
2023-05-10T14:11:27.488Z,48.19
2023-05-10T14:12:32.861Z,48.19
2023-05-10T14:13:38.264Z,48.21
2023-05-10T14:14:43.538Z,48.2
2023-05-10T14:15:49.096Z,48.21
2023-05-10T14:16:54.405Z,48.19
2023-05-10T14:17:59.886Z,48.17
2023-05-10T14:19:06.291Z,48.17
2023-05-10T14:20:11.623Z,48.2
2023-05-10T14:21:18.923Z,48.21
2023-05-10T14:22:24.284Z,48.21
2023-05-10T14:23:29.847Z,48.21
2023-05-10T14:24:35.175Z,48.22
2023-05-10T14:25:40.385Z,48.22
2023-05-10T14:26:45.578Z,48.23
2023-05-10T14:27:50.788Z,48.23
2023-05-10T14:28:56.128Z,48.22
2023-05-10T14:30:01.429Z,48.23
2023-05-10T14:31:06.767Z,48.23
2023-05-10T14:32:12.278Z,48.22
2023-05-10T14:33:17.489Z,48.2
2023-05-10T14:34:22.904Z,48.19
2023-05-10T14:35:28.463Z,48.18
2023-05-10T14:36:33.682Z,48.18
2023-05-10T14:37:38.866Z,48.16
2023-05-10T14:38:44.144Z,48.12
2023-05-10T14:39:49.341Z,48.13
2023-05-10T14:40:54.579Z,48.11
2023-05-10T14:41:59.853Z,48.05
2023-05-10T14:43:05.048Z,48.02
2023-05-10T14:44:10.207Z,47.96
2023-05-10T14:45:15.585Z,47.93
2023-05-10T14:46:21.116Z,47.92
2023-05-10T14:47:26.503Z,47.89
2023-05-10T14:48:31.682Z,47.86
2023-05-10T14:49:36.947Z,47.84
2023-05-10T14:50:42.152Z,47.81
2023-05-10T14:51:47.365Z,47.77
2023-05-10T14:53:06.378Z,47.72
2023-05-10T14:54:11.694Z,47.7
2023-05-10T14:55:17.655Z,47.68
2023-05-10T14:56:23.019Z,47.68
2023-05-10T14:57:28.299Z,47.67
2023-05-10T14:58:35.940Z,47.65
2023-05-10T14:59:42.082Z,47.61
2023-05-10T15:00:49.043Z,47.59
2023-05-10T15:01:55.717Z,47.54
2023-05-10T15:03:02.638Z,47.52
2023-05-10T15:04:09.419Z,47.49
2023-05-10T15:05:16.655Z,47.46
2023-05-10T15:06:22.269Z,47.41
2023-05-10T15:07:27.612Z,47.36
2023-05-10T15:08:32.934Z,47.32
2023-05-10T15:09:38.425Z,47.27
2023-05-10T15:10:43.832Z,47.22
2023-05-10T15:11:49.258Z,47.19
2023-05-10T15:12:54.518Z,47.18
2023-05-10T15:13:59.799Z,47.15
2023-05-10T15:15:05.082Z,47.11
2023-05-10T15:16:10.630Z,47.1
2023-05-10T15:17:15.943Z,47.1
2023-05-10T15:18:21.755Z,47.09
2023-05-10T15:19:28.825Z,47.04
2023-05-10T15:20:34.051Z,47.04
2023-05-10T15:21:39.304Z,47.02
2023-05-10T15:22:44.720Z,47.02
2023-05-10T15:23:49.943Z,47.01
2023-05-10T15:24:55.183Z,46.99
2023-05-10T15:26:00.371Z,46.97
2023-05-10T15:27:05.561Z,46.94
2023-05-10T15:28:10.759Z,46.93
2023-05-10T15:29:15.979Z,46.91
2023-05-10T15:30:21.194Z,46.91
2023-05-10T15:31:26.566Z,46.9
2023-05-10T15:32:31.922Z,46.9
2023-05-10T15:33:37.141Z,46.91
2023-05-10T15:34:42.515Z,46.93
2023-05-10T15:35:47.802Z,46.95
2023-05-10T15:36:52.958Z,46.96
2023-05-10T15:37:58.168Z,46.96
2023-05-10T15:39:03.351Z,46.93
2023-05-10T15:40:08.579Z,46.93
2023-05-10T15:41:13.753Z,46.96
2023-05-10T15:42:18.934Z,47.01
2023-05-10T15:43:24.112Z,46.98
2023-05-10T15:44:29.323Z,46.97
2023-05-10T15:45:37.664Z,46.97
2023-05-10T15:46:43.247Z,46.97
2023-05-10T15:47:48.674Z,46.98
2023-05-10T15:48:53.927Z,46.98
2023-05-10T15:49:59.107Z,46.99
2023-05-10T15:51:04.305Z,47.01
2023-05-10T15:52:09.482Z,47.02
2023-05-10T15:53:14.702Z,46.99
2023-05-10T15:54:19.958Z,47
2023-05-10T15:55:25.435Z,47
2023-05-10T15:56:30.690Z,46.97
2023-05-10T15:57:38.312Z,46.95
2023-05-10T15:58:43.563Z,46.94
2023-05-10T15:59:48.776Z,46.94
2023-05-10T16:00:54.160Z,46.94
2023-05-10T16:01:59.570Z,46.92
2023-05-10T16:03:05.218Z,46.89
2023-05-10T16:04:10.512Z,46.93
2023-05-10T16:05:15.935Z,46.93
2023-05-10T16:06:21.348Z,46.9
2023-05-10T16:07:26.573Z,46.96
2023-05-10T16:08:31.768Z,46.89
2023-05-10T16:09:36.976Z,46.88
2023-05-10T16:10:42.247Z,46.87
2023-05-10T16:11:47.421Z,46.94
2023-05-10T16:12:52.637Z,47.04
2023-05-10T16:13:57.963Z,47.11
2023-05-10T16:15:03.259Z,47.18
2023-05-10T16:16:08.789Z,47.26
2023-05-10T16:17:14.535Z,47.33
2023-05-10T16:18:20.057Z,47.4
2023-05-10T16:19:26.679Z,47.49
2023-05-10T16:20:33.581Z,47.55
2023-05-10T16:21:38.794Z,47.63
2023-05-10T16:22:44.028Z,47.68
2023-05-10T16:23:49.369Z,47.74
2023-05-10T16:24:54.592Z,47.8
2023-05-10T16:25:59.781Z,47.85
2023-05-10T16:27:04.988Z,47.88
2023-05-10T16:28:10.191Z,47.93
2023-05-10T16:29:15.414Z,47.98
2023-05-10T16:30:23.592Z,48
2023-05-10T16:31:29.680Z,48.03
2023-05-10T16:32:35.035Z,48.05
2023-05-10T16:33:40.290Z,48.1
2023-05-10T16:34:45.529Z,48.13
2023-05-10T16:35:50.789Z,48.18
2023-05-10T16:36:56.016Z,48.2
2023-05-10T16:38:01.252Z,48.23
2023-05-10T16:39:06.475Z,48.25
2023-05-10T16:40:11.769Z,48.28
2023-05-10T16:41:16.960Z,48.29
2023-05-10T16:42:22.424Z,48.33
2023-05-10T16:43:28.816Z,48.37
2023-05-10T16:44:34.074Z,48.41
2023-05-10T16:45:39.277Z,48.42
2023-05-10T16:46:44.877Z,48.44
2023-05-10T16:47:50.220Z,48.45
2023-05-10T16:48:55.483Z,48.46
2023-05-10T16:50:00.695Z,48.51
2023-05-10T16:51:05.940Z,48.51
2023-05-10T16:52:11.149Z,48.5
2023-05-10T16:53:16.401Z,48.57
2023-05-10T16:54:21.628Z,48.61
2023-05-10T16:55:29.086Z,48.59
2023-05-10T16:56:34.320Z,48.6
2023-05-10T16:57:39.577Z,48.59
2023-05-10T16:58:44.746Z,48.62
2023-05-10T16:59:49.977Z,48.63
2023-05-10T17:00:55.288Z,48.63
2023-05-10T17:02:00.670Z,48.65
2023-05-10T17:03:06.201Z,48.65
2023-05-10T17:04:12.648Z,48.65
2023-05-10T17:05:19.057Z,48.65
2023-05-10T17:06:24.708Z,48.66
2023-05-10T17:07:30.212Z,48.67
2023-05-10T17:08:35.702Z,48.67
2023-05-10T17:09:41.164Z,48.69
2023-05-10T17:10:46.712Z,48.69
2023-05-10T17:11:52.014Z,48.7
2023-05-10T17:12:57.426Z,48.7
2023-05-10T17:14:02.739Z,48.73
2023-05-10T17:15:08.202Z,48.72
2023-05-10T17:16:13.744Z,48.73
2023-05-10T17:17:19.022Z,48.79
2023-05-10T17:18:24.502Z,48.74
2023-05-10T17:19:31.633Z,48.8
2023-05-10T17:20:36.864Z,48.87
2023-05-10T17:21:42.253Z,48.8
2023-05-10T17:22:47.644Z,48.82
2023-05-10T17:23:53.077Z,48.8
2023-05-10T17:24:58.845Z,48.77
2023-05-10T17:26:04.553Z,48.74
2023-05-10T17:27:09.933Z,48.7
2023-05-10T17:28:15.093Z,48.69
2023-05-10T17:29:20.647Z,48.67
2023-05-10T17:30:25.823Z,48.66
2023-05-10T17:31:31.401Z,48.65
2023-05-10T17:32:36.815Z,48.67
2023-05-10T17:33:42.177Z,48.67
2023-05-10T17:34:47.795Z,48.69
2023-05-10T17:35:53.137Z,48.69
2023-05-10T17:36:58.434Z,48.7
2023-05-10T17:38:04.878Z,48.71
2023-05-10T17:39:10.278Z,48.72
2023-05-10T17:40:15.766Z,48.73
2023-05-10T17:41:21.347Z,48.76
2023-05-10T17:42:26.697Z,48.78
2023-05-10T17:43:32.223Z,48.8
2023-05-10T17:44:37.449Z,48.83
2023-05-10T17:45:43.047Z,48.85
2023-05-10T17:46:48.646Z,48.88
2023-05-10T17:47:54.117Z,48.91
2023-05-10T17:48:59.577Z,48.93
2023-05-10T17:50:04.978Z,48.94
2023-05-10T17:51:10.544Z,48.94
2023-05-10T17:52:16.023Z,48.96
2023-05-10T17:53:21.244Z,48.99
2023-05-10T17:54:26.436Z,49.02
2023-05-10T17:55:31.659Z,49.05
2023-05-10T17:56:36.953Z,49.08
2023-05-10T17:57:42.213Z,49.11
2023-05-10T17:58:47.477Z,49.11
2023-05-10T17:59:52.679Z,49.2
2023-05-10T18:00:58.114Z,49.16
2023-05-10T18:02:03.354Z,49.16
2023-05-10T18:03:08.908Z,49.23
2023-05-10T18:04:14.317Z,49.24
2023-05-10T18:05:20.908Z,49.25
2023-05-10T18:06:26.404Z,49.26
2023-05-10T18:07:31.707Z,49.29
2023-05-10T18:08:36.917Z,49.29
2023-05-10T18:09:42.162Z,49.3
2023-05-10T18:10:47.378Z,49.31
2023-05-10T18:11:52.585Z,49.3
2023-05-10T18:12:57.812Z,49.32
2023-05-10T18:14:02.996Z,49.32
2023-05-10T18:15:08.247Z,49.42
2023-05-10T18:16:13.641Z,49.46
2023-05-10T18:17:20.628Z,49.54
2023-05-10T18:18:25.915Z,49.55
2023-05-10T18:19:31.177Z,49.54
2023-05-10T18:20:36.420Z,49.57
2023-05-10T18:21:41.615Z,49.55
2023-05-10T18:22:46.964Z,49.57
2023-05-10T18:23:52.185Z,49.57
2023-05-10T18:24:57.411Z,49.6
2023-05-10T18:26:02.635Z,49.62
2023-05-10T18:27:07.885Z,49.62
2023-05-10T18:28:13.196Z,49.65
2023-05-10T18:29:18.454Z,49.64
2023-05-10T18:30:23.696Z,49.69
2023-05-10T18:31:29.125Z,49.71
2023-05-10T18:32:34.589Z,49.69
2023-05-10T18:33:39.815Z,49.75
2023-05-10T18:34:45.079Z,49.75
2023-05-10T18:35:50.302Z,49.74
2023-05-10T18:36:55.527Z,49.76
2023-05-10T18:38:00.819Z,49.71
2023-05-10T18:39:06.049Z,49.76
2023-05-10T18:40:11.263Z,49.75
2023-05-10T18:41:16.503Z,49.74
2023-05-10T18:42:21.674Z,49.78
2023-05-10T18:43:26.930Z,49.79
2023-05-10T18:44:32.159Z,49.84
2023-05-10T18:45:37.374Z,49.85
2023-05-10T18:46:42.799Z,49.87
2023-05-10T18:47:48.183Z,49.84
2023-05-10T18:48:53.455Z,49.87
2023-05-10T18:49:58.668Z,49.89
2023-05-10T18:51:03.925Z,49.92
2023-05-10T18:52:09.150Z,49.91
2023-05-10T18:53:14.362Z,49.94
2023-05-10T18:54:19.635Z,49.93
2023-05-10T18:55:24.905Z,49.96
2023-05-10T18:56:30.140Z,49.96
2023-05-10T18:57:35.317Z,49.98
2023-05-10T18:58:40.511Z,50.03
2023-05-10T18:59:45.722Z,50.04
2023-05-10T19:00:50.961Z,50.09
2023-05-10T19:01:59.061Z,50.12
2023-05-10T19:03:04.388Z,50.14
2023-05-10T19:04:09.778Z,50.14
2023-05-10T19:05:15.301Z,50.15
2023-05-10T19:06:20.869Z,50.17
2023-05-10T19:07:26.133Z,50.17
2023-05-10T19:08:31.313Z,50.17
2023-05-10T19:09:36.533Z,50.17
2023-05-10T19:10:41.725Z,50.22
2023-05-10T19:11:46.941Z,50.24
2023-05-10T19:12:52.145Z,50.25
2023-05-10T19:13:57.386Z,50.29
2023-05-10T19:15:02.590Z,50.25
2023-05-10T19:16:09.091Z,50.27
2023-05-10T19:17:18.220Z,50.29
2023-05-10T19:18:24.768Z,50.31
2023-05-10T19:19:32.736Z,50.29
2023-05-10T19:20:40.279Z,50.3
2023-05-10T19:21:49.817Z,50.33
2023-05-10T19:23:11.881Z,50.32
2023-05-10T19:24:17.264Z,50.33
2023-05-10T19:25:23.591Z,50.34
2023-05-10T19:26:28.828Z,50.37
2023-05-10T19:27:34.434Z,50.38
2023-05-10T19:28:40.394Z,50.45
2023-05-10T19:29:45.737Z,50.49
2023-05-10T19:30:51.188Z,50.56
2023-05-10T19:31:56.790Z,50.58
2023-05-10T19:33:03.323Z,50.61
2023-05-10T19:34:08.745Z,50.62
2023-05-10T19:35:15.692Z,50.7
2023-05-10T19:36:21.055Z,50.7
2023-05-10T19:37:28.012Z,50.72
2023-05-10T19:38:33.205Z,50.7
2023-05-10T19:39:38.707Z,50.7
2023-05-10T19:40:43.956Z,50.72
2023-05-10T19:41:50.817Z,50.76
2023-05-10T19:42:56.838Z,50.76
2023-05-10T19:44:02.060Z,50.74
2023-05-10T19:45:07.255Z,50.79
2023-05-10T19:46:12.687Z,50.83
2023-05-10T19:47:18.140Z,50.87
2023-05-10T19:48:23.381Z,50.96
2023-05-10T19:49:29.291Z,50.99
2023-05-10T19:50:34.556Z,51.02
2023-05-10T19:51:39.790Z,51.04
2023-05-10T19:52:45.181Z,51.12
2023-05-10T19:53:50.401Z,51.15
2023-05-10T19:54:55.627Z,51.31
2023-05-10T19:56:01.837Z,51.38
2023-05-10T19:57:07.052Z,51.43
2023-05-10T19:58:12.253Z,51.23
2023-05-10T19:59:17.494Z,51.34
2023-05-10T20:00:22.674Z,51.32
2023-05-10T20:01:28.280Z,51.16
2023-05-10T20:02:33.905Z,51.14
2023-05-10T20:03:39.606Z,51.07
2023-05-10T20:04:44.889Z,51.21
2023-05-10T20:05:50.173Z,51.22
2023-05-10T20:06:55.475Z,51.25
2023-05-10T20:08:00.737Z,51.22
2023-05-10T20:09:05.909Z,51.21
2023-05-10T20:10:11.095Z,51.22
2023-05-10T20:11:16.311Z,51.23
2023-05-10T20:12:21.494Z,51.22
2023-05-10T20:13:26.741Z,51.24
2023-05-10T20:14:32.054Z,51.23
2023-05-10T20:15:37.344Z,51.24
2023-05-10T20:16:42.714Z,51.22
2023-05-10T20:17:48.109Z,51.22
2023-05-10T20:18:57.468Z,51.2
2023-05-10T20:20:02.698Z,51.23
2023-05-10T20:21:08.017Z,51.3
2023-05-10T20:22:13.230Z,51.27
2023-05-10T20:23:18.528Z,51.28
2023-05-10T20:24:23.884Z,51.28
2023-05-10T20:25:29.299Z,51.3
2023-05-10T20:26:34.584Z,51.29
2023-05-10T20:27:39.764Z,51.28
2023-05-10T20:28:44.908Z,51.27
2023-05-10T20:29:50.134Z,51.25
2023-05-10T20:30:56.253Z,51.26
2023-05-10T20:32:01.598Z,51.26
2023-05-10T20:33:07.217Z,51.27
2023-05-10T20:34:12.436Z,51.33
2023-05-10T20:35:17.637Z,51.33
2023-05-10T20:36:22.855Z,51.34
2023-05-10T20:37:28.230Z,51.36
2023-05-10T20:38:33.671Z,51.36
2023-05-10T20:39:39.017Z,51.37
2023-05-10T20:40:44.237Z,51.37
2023-05-10T20:41:49.467Z,51.36
2023-05-10T20:42:56.580Z,51.36
2023-05-10T20:44:01.729Z,51.32
2023-05-10T20:45:06.988Z,51.42
2023-05-10T20:46:12.357Z,51.4
2023-05-10T20:47:17.605Z,51.43
2023-05-10T20:48:23.007Z,51.45
2023-05-10T20:49:28.190Z,51.44
2023-05-10T20:50:33.448Z,51.44
2023-05-10T20:51:38.693Z,51.46
2023-05-10T20:52:43.954Z,51.53
2023-05-10T20:53:49.258Z,51.54
2023-05-10T20:54:54.414Z,51.5
2023-05-10T20:55:59.647Z,51.52
2023-05-10T20:57:04.840Z,51.54
2023-05-10T20:58:10.035Z,51.52
2023-05-10T20:59:15.207Z,51.53
2023-05-10T21:00:21.291Z,51.54
2023-05-10T21:01:26.638Z,51.53
2023-05-10T21:02:32.038Z,51.17
2023-05-10T21:03:37.289Z,51.62
2023-05-10T21:04:42.547Z,51.58
2023-05-10T21:05:47.738Z,51.59
2023-05-10T21:06:53.029Z,51.56
2023-05-10T21:07:58.253Z,51.54
2023-05-10T21:09:03.455Z,51.55
2023-05-10T21:10:08.676Z,51.51
2023-05-10T21:11:13.836Z,51.48
2023-05-10T21:12:18.993Z,51.47
2023-05-10T21:13:24.306Z,51.43
2023-05-10T21:14:29.464Z,51.41
2023-05-10T21:15:34.640Z,51.37
2023-05-10T21:16:40.388Z,51.36
2023-05-10T21:17:45.755Z,51.35
2023-05-10T21:18:51.216Z,51.36
2023-05-10T21:19:56.462Z,51.35
2023-05-10T21:21:01.679Z,51.37
2023-05-10T21:22:06.907Z,51.36
2023-05-10T21:23:12.114Z,51.4
2023-05-10T21:24:17.492Z,51.4
2023-05-10T21:25:23.126Z,51.4
2023-05-10T21:26:28.308Z,51.43
2023-05-10T21:27:33.473Z,51.48
2023-05-10T21:28:41.585Z,51.49
2023-05-10T21:29:46.817Z,51.6
2023-05-10T21:30:51.991Z,51.61
2023-05-10T21:31:57.298Z,51.7
2023-05-10T21:33:02.951Z,51.76
2023-05-10T21:34:08.197Z,51.88
2023-05-10T21:35:13.381Z,51.81
2023-05-10T21:36:18.799Z,51.81
2023-05-10T21:37:24.024Z,51.83
2023-05-10T21:38:29.173Z,51.82
2023-05-10T21:39:34.339Z,51.8
2023-05-10T21:40:39.516Z,51.78
2023-05-10T21:41:44.786Z,51.78
2023-05-10T21:42:49.916Z,51.8
2023-05-10T21:43:55.092Z,51.8
2023-05-10T21:45:00.267Z,51.8
2023-05-10T21:46:05.630Z,51.8
2023-05-10T21:47:10.823Z,51.81
2023-05-10T21:48:16.139Z,51.81
2023-05-10T21:49:21.300Z,51.81
2023-05-10T21:50:26.463Z,51.82
2023-05-10T21:51:31.849Z,51.82
2023-05-10T21:52:37.012Z,51.87
2023-05-10T21:53:42.195Z,51.86
2023-05-10T21:54:47.424Z,51.89
2023-05-10T21:55:52.631Z,51.94
2023-05-10T21:56:57.813Z,52.08
2023-05-10T21:58:02.999Z,52.07
2023-05-10T21:59:08.159Z,52.29
2023-05-10T22:00:13.427Z,52.38
2023-05-10T22:01:18.713Z,52.37
2023-05-10T22:02:24.150Z,52.39
2023-05-10T22:03:29.733Z,52.39
2023-05-10T22:04:34.920Z,52.4
2023-05-10T22:05:40.132Z,52.36
2023-05-10T22:06:45.293Z,52.38
2023-05-10T22:07:50.455Z,52.45
2023-05-10T22:08:55.674Z,52.4
2023-05-10T22:10:00.868Z,52.41
2023-05-10T22:11:06.046Z,52.46
2023-05-10T22:12:11.217Z,52.42
2023-05-10T22:13:16.381Z,52.42
2023-05-10T22:14:21.623Z,52.41
2023-05-10T22:15:26.821Z,52.41
2023-05-10T22:16:32.182Z,52.49
2023-05-10T22:17:37.451Z,52.43
2023-05-10T22:18:42.824Z,52.48
2023-05-10T22:19:48.010Z,52.46
2023-05-10T22:20:53.256Z,52.47
2023-05-10T22:21:58.435Z,52.44
2023-05-10T22:23:03.677Z,52.44
2023-05-10T22:24:08.886Z,52.44
2023-05-10T22:25:14.107Z,52.47
2023-05-10T22:26:19.267Z,52.5
2023-05-10T22:27:24.459Z,52.5
2023-05-10T22:28:29.632Z,52.5
2023-05-10T22:29:34.835Z,52.52
2023-05-10T22:30:40.033Z,52.53
2023-05-10T22:31:45.284Z,52.52
2023-05-10T22:32:50.509Z,52.51
2023-05-10T22:33:55.750Z,52.51
2023-05-10T22:35:00.923Z,52.52
2023-05-10T22:36:06.087Z,52.53
2023-05-10T22:37:11.265Z,52.53
2023-05-10T22:38:16.449Z,52.53
2023-05-10T22:39:21.638Z,52.52
2023-05-10T22:40:26.809Z,52.54
2023-05-10T22:41:32.101Z,52.53
2023-05-10T22:42:37.284Z,52.53
2023-05-10T22:43:42.440Z,52.53
2023-05-10T22:44:47.600Z,52.54
2023-05-10T22:45:52.807Z,52.53
2023-05-10T22:46:58.341Z,52.54
2023-05-10T22:48:03.769Z,52.54
2023-05-10T22:49:08.945Z,52.55
2023-05-10T22:50:14.149Z,52.55
2023-05-10T22:51:19.321Z,52.54
2023-05-10T22:52:24.510Z,52.55
2023-05-10T22:53:29.675Z,52.56
2023-05-10T22:54:37.746Z,52.55
2023-05-10T22:55:42.953Z,52.57
2023-05-10T22:56:48.143Z,52.56
2023-05-10T22:57:53.311Z,52.59
2023-05-10T22:58:58.503Z,52.57
2023-05-10T23:00:03.671Z,52.58
2023-05-10T23:01:08.841Z,52.56